sensor_id;sensor_type;location;lat;lon;timestamp;pressure;altitude;pressure_sealevel;temperature;humidity
7836;BME280;3963;42.658;23.298;2023-07-20T00:01:49;45308.69;;;-144.44;57.34
7836;BME280;3963;42.658;23.298;2023-07-20T00:04:16;45294.84;;;-144.44;56.84
7836;BME280;3963;42.658;23.298;2023-07-20T00:06:43;45275.09;;;-144.44;57.70
7836;BME280;3963;42.658;23.298;2023-07-20T00:09:12;45257.31;;;-144.44;57.46
7836;BME280;3963;42.658;23.298;2023-07-20T00:11:39;45271.13;;;-144.44;57.97
7836;BME280;3963;42.658;23.298;2023-07-20T00:14:06;45286.94;;;-144.44;58.15
7836;BME280;3963;42.658;23.298;2023-07-20T00:16:33;45290.91;;;-144.44;58.54
7836;BME280;3963;42.658;23.298;2023-07-20T00:19:00;45283.00;;;-144.44;59.21
7836;BME280;3963;42.658;23.298;2023-07-20T00:21:27;45263.22;;;-144.44;58.10
7836;BME280;3963;42.658;23.298;2023-07-20T00:23:54;45283.00;;;-144.44;58.04
7836;BME280;3963;42.658;23.298;2023-07-20T00:26:22;45277.06;;;-144.44;57.69
7836;BME280;3963;42.658;23.298;2023-07-20T00:28:50;45271.13;;;-144.44;58.23
7836;BME280;3963;42.658;23.298;2023-07-20T00:31:17;45290.91;;;-144.44;59.71
7836;BME280;3963;42.658;23.298;2023-07-20T00:33:43;45283.00;;;-144.44;60.08
7836;BME280;3963;42.658;23.298;2023-07-20T00:36:10;45275.09;;;-144.44;60.68
7836;BME280;3963;42.658;23.298;2023-07-20T00:38:37;45263.22;;;-144.44;60.83
7836;BME280;3963;42.658;23.298;2023-07-20T00:41:04;45255.31;;;-144.44;60.62
7836;BME280;3963;42.658;23.298;2023-07-20T00:43:32;45225.69;;;-144.44;59.94
7836;BME280;3963;42.658;23.298;2023-07-20T00:45:59;45275.09;;;-144.44;60.45
7836;BME280;3963;42.658;23.298;2023-07-20T00:48:28;45279.03;;;-144.44;61.24
7836;BME280;3963;42.658;23.298;2023-07-20T00:50:55;45263.22;;;-144.44;60.86
7836;BME280;3963;42.658;23.298;2023-07-20T00:53:22;45253.34;;;-144.44;60.72
7836;BME280;3963;42.658;23.298;2023-07-20T00:55:49;45288.91;;;-144.44;60.73
7836;BME280;3963;42.658;23.298;2023-07-20T00:58:16;45284.97;;;-144.44;61.26
7836;BME280;3963;42.658;23.298;2023-07-20T01:00:44;45279.03;;;-144.44;61.12
7836;BME280;3963;42.658;23.298;2023-07-20T01:03:12;45255.31;;;-144.44;61.53
7836;BME280;3963;42.658;23.298;2023-07-20T01:05:42;45263.22;;;-144.44;62.29
7836;BME280;3963;42.658;23.298;2023-07-20T01:08:17;45267.19;;;-144.44;63.72
7836;BME280;3963;42.658;23.298;2023-07-20T01:11:05;45243.47;;;-144.44;64.78
7836;BME280;3963;42.658;23.298;2023-07-20T01:13:33;45217.78;;;-144.44;64.81
7836;BME280;3963;42.658;23.298;2023-07-20T01:16:02;45265.22;;;-144.44;64.91
7836;BME280;3963;42.658;23.298;2023-07-20T01:18:29;45247.41;;;-144.44;65.46
7836;BME280;3963;42.658;23.298;2023-07-20T01:20:59;45247.41;;;-144.44;65.66
7836;BME280;3963;42.658;23.298;2023-07-20T01:23:51;45243.47;;;-144.44;66.86
7836;BME280;3963;42.658;23.298;2023-07-20T01:26:38;45229.63;;;-144.44;67.67
7836;BME280;3963;42.658;23.298;2023-07-20T01:29:42;45247.41;;;-144.44;67.68
7836;BME280;3963;42.658;23.298;2023-07-20T01:32:17;45215.81;;;-144.44;67.20
7836;BME280;3963;42.658;23.298;2023-07-20T01:34:47;45247.41;;;-144.44;67.39
7836;BME280;3963;42.658;23.298;2023-07-20T01:37:16;45229.63;;;-144.44;67.92
7836;BME280;3963;42.658;23.298;2023-07-20T01:39:45;45235.56;;;-144.44;68.19
7836;BME280;3963;42.658;23.298;2023-07-20T01:42:12;45227.66;;;-144.44;68.66
7836;BME280;3963;42.658;23.298;2023-07-20T01:44:39;45221.72;;;-144.44;68.58
7836;BME280;3963;42.658;23.298;2023-07-20T01:47:06;45215.81;;;-144.44;69.27
7836;BME280;3963;42.658;23.298;2023-07-20T01:49:35;45227.66;;;-144.44;70.15
7836;BME280;3963;42.658;23.298;2023-07-20T01:52:03;45211.84;;;-144.44;70.32
7836;BME280;3963;42.658;23.298;2023-07-20T01:54:30;45180.22;;;-144.44;70.23
7836;BME280;3963;42.658;23.298;2023-07-20T01:56:57;45194.06;;;-144.44;70.22
7836;BME280;3963;42.658;23.298;2023-07-20T01:59:23;45200.00;;;-144.44;70.53
7836;BME280;3963;42.658;23.298;2023-07-20T02:01:50;45186.16;;;-144.44;71.94
7836;BME280;3963;42.658;23.298;2023-07-20T02:04:17;45168.38;;;-144.44;71.82
7836;BME280;3963;42.658;23.298;2023-07-20T02:06:45;45182.19;;;-144.44;71.77
7836;BME280;3963;42.658;23.298;2023-07-20T02:09:12;45188.13;;;-144.44;71.78
7836;BME280;3963;42.658;23.298;2023-07-20T02:11:39;45166.41;;;-144.44;71.69
7836;BME280;3963;42.658;23.298;2023-07-20T02:14:06;45158.50;;;-144.44;71.86
7836;BME280;3963;42.658;23.298;2023-07-20T02:16:34;45160.47;;;-144.44;72.01
7836;BME280;3963;42.658;23.298;2023-07-20T02:19:01;45146.63;;;-144.44;72.23
7836;BME280;3963;42.658;23.298;2023-07-20T02:21:29;45148.59;;;-144.44;72.46
7836;BME280;3963;42.658;23.298;2023-07-20T02:23:57;45154.53;;;-144.44;72.57
7836;BME280;3963;42.658;23.298;2023-07-20T02:26:24;45128.84;;;-144.44;72.97
7836;BME280;3963;42.658;23.298;2023-07-20T02:28:50;45132.78;;;-144.44;73.60
7836;BME280;3963;42.658;23.298;2023-07-20T02:31:17;45148.59;;;-144.44;74.12
7836;BME280;3963;42.658;23.298;2023-07-20T02:33:44;45113.03;;;-144.44;74.35
7836;BME280;3963;42.658;23.298;2023-07-20T02:36:11;45097.22;;;-144.44;74.52
7836;BME280;3963;42.658;23.298;2023-07-20T02:38:38;45120.94;;;-144.44;74.38
7836;BME280;3963;42.658;23.298;2023-07-20T02:41:06;45089.31;;;-144.44;74.77
7836;BME280;3963;42.658;23.298;2023-07-20T02:43:33;45085.38;;;-144.44;74.86
7836;BME280;3963;42.658;23.298;2023-07-20T02:46:00;45113.03;;;-144.44;75.10
7836;BME280;3963;42.658;23.298;2023-07-20T02:48:26;45097.22;;;-144.44;75.61
7836;BME280;3963;42.658;23.298;2023-07-20T02:50:53;45053.75;;;-144.44;76.25
7836;BME280;3963;42.658;23.298;2023-07-20T02:53:21;45069.56;;;-144.44;76.80
7836;BME280;3963;42.658;23.298;2023-07-20T02:55:48;45043.88;;;-144.44;76.81
7836;BME280;3963;42.658;23.298;2023-07-20T02:58:16;45059.69;;;-144.44;76.89
7836;BME280;3963;42.658;23.298;2023-07-20T03:00:43;45041.91;;;-144.44;76.96
7836;BME280;3963;42.658;23.298;2023-07-20T03:03:12;45026.09;;;-144.44;77.04
7836;BME280;3963;42.658;23.298;2023-07-20T03:05:40;45028.06;;;-144.44;76.88
7836;BME280;3963;42.658;23.298;2023-07-20T03:08:08;45014.22;;;-144.44;76.91
7836;BME280;3963;42.658;23.298;2023-07-20T03:10:38;44992.50;;;-144.44;77.41
7836;BME280;3963;42.658;23.298;2023-07-20T03:13:06;45006.31;;;-144.44;78.03
7836;BME280;3963;42.658;23.298;2023-07-20T03:15:34;44986.56;;;-144.44;77.92
7836;BME280;3963;42.658;23.298;2023-07-20T03:18:01;44974.72;;;-144.44;77.83
7836;BME280;3963;42.658;23.298;2023-07-20T03:20:28;44982.59;;;-144.44;77.96
7836;BME280;3963;42.658;23.298;2023-07-20T03:22:55;44972.72;;;-144.44;77.30
7836;BME280;3963;42.658;23.298;2023-07-20T03:25:21;44990.50;;;-144.44;77.04
7836;BME280;3963;42.658;23.298;2023-07-20T03:27:48;44972.72;;;-144.44;77.25
7836;BME280;3963;42.658;23.298;2023-07-20T03:30:15;44966.81;;;-144.44;77.12
7836;BME280;3963;42.658;23.298;2023-07-20T03:32:44;44945.06;;;-144.44;76.35
7836;BME280;3963;42.658;23.298;2023-07-20T03:35:11;44947.03;;;-144.44;77.05
7836;BME280;3963;42.658;23.298;2023-07-20T03:37:38;44958.91;;;-144.44;77.14
7836;BME280;3963;42.658;23.298;2023-07-20T03:40:06;44968.78;;;-144.44;76.48
7836;BME280;3963;42.658;23.298;2023-07-20T03:42:33;44929.25;;;-144.44;77.05
7836;BME280;3963;42.658;23.298;2023-07-20T03:44:59;44925.31;;;-144.44;77.26
7836;BME280;3963;42.658;23.298;2023-07-20T03:47:26;44919.38;;;-144.44;76.95
7836;BME280;3963;42.658;23.298;2023-07-20T03:49:54;44952.97;;;-144.44;77.12
7836;BME280;3963;42.658;23.298;2023-07-20T03:52:21;44962.84;;;-144.44;76.70
7836;BME280;3963;42.658;23.298;2023-07-20T03:54:48;44923.31;;;-144.44;76.35
7836;BME280;3963;42.658;23.298;2023-07-20T03:57:16;44927.28;;;-144.44;76.13
7836;BME280;3963;42.658;23.298;2023-07-20T03:59:44;44929.25;;;-144.44;76.11
7836;BME280;3963;42.658;23.298;2023-07-20T04:02:13;44923.31;;;-144.44;76.60
7836;BME280;3963;42.658;23.298;2023-07-20T04:04:41;44915.44;;;-144.44;76.67
7836;BME280;3963;42.658;23.298;2023-07-20T04:07:10;44927.28;;;-144.44;76.96
7836;BME280;3963;42.658;23.298;2023-07-20T04:09:37;44945.06;;;-144.44;76.49
7836;BME280;3963;42.658;23.298;2023-07-20T04:12:04;44913.44;;;-144.44;76.52
7836;BME280;3963;42.658;23.298;2023-07-20T04:14:31;44919.38;;;-144.44;76.20
7836;BME280;3963;42.658;23.298;2023-07-20T04:16:58;44911.47;;;-144.44;75.38
7836;BME280;3963;42.658;23.298;2023-07-20T04:19:25;44939.13;;;-144.44;74.66
7836;BME280;3963;42.658;23.298;2023-07-20T04:21:53;44958.91;;;-144.44;74.40
7836;BME280;3963;42.658;23.298;2023-07-20T04:24:22;44976.69;;;-144.44;73.42
7836;BME280;3963;42.658;23.298;2023-07-20T04:26:48;44976.69;;;-144.44;73.17
7836;BME280;3963;42.658;23.298;2023-07-20T04:29:15;44978.66;;;-144.44;73.59
7836;BME280;3963;42.658;23.298;2023-07-20T04:31:42;44974.72;;;-144.44;74.01
7836;BME280;3963;42.658;23.298;2023-07-20T04:34:09;45010.28;;;-144.44;72.99
7836;BME280;3963;42.658;23.298;2023-07-20T04:36:36;44984.59;;;-144.44;72.61
7836;BME280;3963;42.658;23.298;2023-07-20T04:39:03;45008.31;;;-144.44;72.43
7836;BME280;3963;42.658;23.298;2023-07-20T04:41:33;45026.09;;;-144.44;72.23
7836;BME280;3963;42.658;23.298;2023-07-20T04:44:00;45022.13;;;-144.44;72.26
7836;BME280;3963;42.658;23.298;2023-07-20T04:46:27;45018.19;;;-144.44;72.54
7836;BME280;3963;42.658;23.298;2023-07-20T04:48:54;45022.13;;;-144.44;73.16
7836;BME280;3963;42.658;23.298;2023-07-20T04:51:21;45010.28;;;-144.44;73.31
7836;BME280;3963;42.658;23.298;2023-07-20T04:53:48;45024.09;;;-144.44;73.45
7836;BME280;3963;42.658;23.298;2023-07-20T04:56:15;45047.81;;;-144.44;71.87
7836;BME280;3963;42.658;23.298;2023-07-20T04:58:43;45057.69;;;-144.44;71.12
7836;BME280;3963;42.658;23.298;2023-07-20T05:01:10;45045.84;;;-144.44;70.16
7836;BME280;3963;42.658;23.298;2023-07-20T05:03:37;45065.59;;;-144.44;69.83
7836;BME280;3963;42.658;23.298;2023-07-20T05:06:04;45069.56;;;-144.44;70.42
7836;BME280;3963;42.658;23.298;2023-07-20T05:08:31;45057.69;;;-144.44;70.22
7836;BME280;3963;42.658;23.298;2023-07-20T05:10:59;45085.38;;;-144.44;69.68
7836;BME280;3963;42.658;23.298;2023-07-20T05:13:26;45101.19;;;-144.44;68.97
7836;BME280;3963;42.658;23.298;2023-07-20T05:15:54;45115.00;;;-144.44;68.19
7836;BME280;3963;42.658;23.298;2023-07-20T05:18:22;45115.00;;;-144.44;67.89
7836;BME280;3963;42.658;23.298;2023-07-20T05:20:50;45150.59;;;-144.44;67.21
7836;BME280;3963;42.658;23.298;2023-07-20T05:23:18;45156.50;;;-144.44;66.52
7836;BME280;3963;42.658;23.298;2023-07-20T05:25:45;45120.94;;;-144.44;66.66
7836;BME280;3963;42.658;23.298;2023-07-20T05:28:12;45198.00;;;-144.44;66.26
7836;BME280;3963;42.658;23.298;2023-07-20T05:30:39;45138.72;;;-144.44;66.24
7836;BME280;3963;42.658;23.298;2023-07-20T05:33:07;45200.00;;;-144.44;65.57
7836;BME280;3963;42.658;23.298;2023-07-20T05:35:36;45172.31;;;-144.44;63.47
7836;BME280;3963;42.658;23.298;2023-07-20T05:38:02;45186.16;;;-144.44;63.37
7836;BME280;3963;42.658;23.298;2023-07-20T05:40:30;45196.03;;;-144.44;63.48
7836;BME280;3963;42.658;23.298;2023-07-20T05:42:57;45211.84;;;-144.44;63.55
7836;BME280;3963;42.658;23.298;2023-07-20T05:45:24;45217.78;;;-144.44;61.99
7836;BME280;3963;42.658;23.298;2023-07-20T05:47:51;45273.13;;;-144.44;61.32
7836;BME280;3963;42.658;23.298;2023-07-20T05:50:19;45243.47;;;-144.44;60.68
7836;BME280;3963;42.658;23.298;2023-07-20T05:52:46;45267.19;;;-144.44;60.57
7836;BME280;3963;42.658;23.298;2023-07-20T05:55:13;45267.19;;;-144.44;61.20
7836;BME280;3963;42.658;23.298;2023-07-20T05:57:40;45290.91;;;-144.44;60.96
7836;BME280;3963;42.658;23.298;2023-07-20T06:00:08;45259.28;;;-144.44;60.58
7836;BME280;3963;42.658;23.298;2023-07-20T06:02:35;45263.22;;;-144.44;60.78
7836;BME280;3963;42.658;23.298;2023-07-20T06:05:02;45283.00;;;-144.44;59.89
7836;BME280;3963;42.658;23.298;2023-07-20T06:07:30;45306.72;;;-144.44;59.26
7836;BME280;3963;42.658;23.298;2023-07-20T06:09:57;45334.38;;;-144.44;59.29
7836;BME280;3963;42.658;23.298;2023-07-20T06:12:24;45322.53;;;-144.44;57.90
7836;BME280;3963;42.658;23.298;2023-07-20T06:14:51;45342.28;;;-144.44;57.95
7836;BME280;3963;42.658;23.298;2023-07-20T06:17:18;45308.69;;;-144.44;58.16
7836;BME280;3963;42.658;23.298;2023-07-20T06:19:45;45310.66;;;-144.44;57.97
7836;BME280;3963;42.658;23.298;2023-07-20T06:22:11;45310.66;;;-144.44;58.32
7836;BME280;3963;42.658;23.298;2023-07-20T06:24:40;45356.13;;;-144.44;57.58
7836;BME280;3963;42.658;23.298;2023-07-20T06:27:06;45362.03;;;-144.44;56.17
7836;BME280;3963;42.658;23.298;2023-07-20T06:29:33;45362.03;;;-144.44;55.21
7836;BME280;3963;42.658;23.298;2023-07-20T06:31:59;45367.97;;;-144.44;55.44
7836;BME280;3963;42.658;23.298;2023-07-20T06:34:26;45389.72;;;-144.44;54.43
7836;BME280;3963;42.658;23.298;2023-07-20T06:36:53;45375.88;;;-144.44;54.46
7836;BME280;3963;42.658;23.298;2023-07-20T06:39:19;45401.56;;;-144.44;54.09
7836;BME280;3963;42.658;23.298;2023-07-20T06:41:48;45429.25;;;-144.44;51.92
7836;BME280;3963;42.658;23.298;2023-07-20T06:44:15;45445.06;;;-144.44;51.09
7836;BME280;3963;42.658;23.298;2023-07-20T06:46:41;45443.06;;;-144.44;49.73
7836;BME280;3963;42.658;23.298;2023-07-20T06:49:08;45486.56;;;-144.44;49.35
7836;BME280;3963;42.658;23.298;2023-07-20T06:51:35;45488.53;;;-144.44;48.68
7836;BME280;3963;42.658;23.298;2023-07-20T06:54:02;45512.25;;;-144.44;48.12
7836;BME280;3963;42.658;23.298;2023-07-20T06:56:30;45528.06;;;-144.44;47.56
7836;BME280;3963;42.658;23.298;2023-07-20T06:58:58;45555.72;;;-144.44;45.05
7836;BME280;3963;42.658;23.298;2023-07-20T07:01:24;45591.31;;;-144.44;43.71
7836;BME280;3963;42.658;23.298;2023-07-20T07:03:51;45632.81;;;-144.44;43.05
7836;BME280;3963;42.658;23.298;2023-07-20T07:06:18;45626.88;;;-144.44;42.15
7836;BME280;3963;42.658;23.298;2023-07-20T07:08:46;45652.56;;;-144.44;42.59
7836;BME280;3963;42.658;23.298;2023-07-20T07:11:13;45605.13;;;-144.44;43.62
7836;BME280;3963;42.658;23.298;2023-07-20T07:13:39;45615.03;;;-144.44;44.66
7836;BME280;3963;42.658;23.298;2023-07-20T07:16:07;45573.53;;;-144.44;46.60
7836;BME280;3963;42.658;23.298;2023-07-20T07:18:34;45591.31;;;-144.44;45.87
7836;BME280;3963;42.658;23.298;2023-07-20T07:21:01;45618.97;;;-144.44;44.99
7836;BME280;3963;42.658;23.298;2023-07-20T07:23:28;45646.66;;;-144.44;44.20
7836;BME280;3963;42.658;23.298;2023-07-20T07:25:54;45723.72;;;-144.44;42.36
7836;BME280;3963;42.658;23.298;2023-07-20T07:28:21;45781.06;;;-144.44;41.03
7836;BME280;3963;42.658;23.298;2023-07-20T07:30:48;45824.53;;;-144.44;41.69
7836;BME280;3963;42.658;23.298;2023-07-20T07:33:16;45786.97;;;-144.44;42.47
7836;BME280;3963;42.658;23.298;2023-07-20T07:58:29;46036.03;;;-144.44;37.76
